Time;durP1;ratioP1;P1;durP2;ratioP2;P2;SDS_P1;SDS_P2;PMS_P1;PMS_P2;Temp;Humidity;BMP_temperature;BMP_pressure;BME280_temperature;BME280_humidity;BME280_pressure;Samples;Min_cycle;Max_cycle;Signal;HPM_P1;HPM_P2
2024/01/13 00:00:55;;;;;;;0.20;0.20;;;5.10;99.90;;;;;;5004750;28;20223;-92
2024/01/13 00:03:31;;;;;;;0.20;0.20;;;5.20;99.90;;;;;;5005453;28;20569;-91
2024/01/13 00:05:59;;;;;;;0.20;0.20;;;5.20;99.90;;;;;;5004409;28;20198;-90
2024/01/13 00:08:27;;;;;;;0.30;0.30;;;5.20;99.90;;;;;;4997047;28;20215;-90
2024/01/13 00:10:52;;;;;;;0.27;0.27;;;5.00;99.90;;;;;;5021348;28;20219;-91
2024/01/13 00:13:18;;;;;;;10.90;0.93;;;5.30;99.90;;;;;;5004997;28;20253;-90
2024/01/13 00:15:46;;;;;;;0.30;0.30;;;5.10;99.90;;;;;;5004444;28;20301;-90
2024/01/13 00:18:13;;;;;;;0.20;0.20;;;5.10;99.90;;;;;;5003998;28;20599;-90
2024/01/13 00:20:42;;;;;;;0.20;0.20;;;4.70;99.90;;;;;;5005697;28;20195;-93
2024/01/13 00:23:10;;;;;;;0.30;0.30;;;5.10;99.90;;;;;;5003989;28;20225;-91
2024/01/13 00:25:36;;;;;;;4.13;1.67;;;4.80;99.90;;;;;;5004657;28;20223;-91
2024/01/13 00:28:04;;;;;;;1.50;0.40;;;5.00;99.90;;;;;;5003250;28;20222;-92
2024/01/13 00:30:33;;;;;;;0.30;0.30;;;5.00;99.90;;;;;;5003813;28;20253;-90
2024/01/13 00:33:01;;;;;;;0.23;0.23;;;4.90;99.90;;;;;;5003389;28;20302;-87
2024/01/13 00:35:34;;;;;;;0.20;0.20;;;4.70;99.90;;;;;;5003853;28;20725;-89
2024/01/13 00:38:02;;;;;;;2.20;1.03;;;4.70;99.90;;;;;;5002070;28;20226;-90
2024/01/13 00:40:30;;;;;;;0.30;0.30;;;4.70;99.90;;;;;;5003512;28;20219;-90
2024/01/13 00:42:56;;;;;;;0.40;0.40;;;4.80;99.90;;;;;;4987459;28;20575;-92
2024/01/13 00:45:22;;;;;;;0.53;0.53;;;5.00;99.90;;;;;;5036604;28;20239;-88
2024/01/13 00:47:55;;;;;;;0.23;0.23;;;5.00;99.90;;;;;;5003831;28;20179;-91
2024/01/13 00:50:21;;;;;;;0.30;0.30;;;4.70;99.90;;;;;;5003563;28;20561;-90
2024/01/13 00:52:51;;;;;;;0.20;0.20;;;4.60;99.90;;;;;;5013069;28;20312;-90
2024/01/13 00:55:17;;;;;;;0.30;0.30;;;4.90;99.90;;;;;;4993323;28;20227;-91
2024/01/13 00:57:48;;;;;;;0.30;0.30;;;4.70;99.90;;;;;;5023171;28;20231;-93
2024/01/13 01:00:16;;;;;;;0.93;0.93;;;4.60;99.90;;;;;;5017748;28;20188;-94
2024/01/13 01:02:45;;;;;;;0.93;0.50;;;4.90;99.90;;;;;;5033841;28;20446;-91
2024/01/13 01:05:11;;;;;;;2.43;0.50;;;4.90;99.90;;;;;;5001043;28;20215;-91
2024/01/13 01:07:40;;;;;;;0.10;0.10;;;4.60;99.90;;;;;;4997785;28;20219;-91
2024/01/13 01:10:06;;;;;;;0.80;0.80;;;4.80;99.90;;;;;;5017618;28;20226;-90
2024/01/13 01:12:32;;;;;;;0.60;0.60;;;4.70;99.90;;;;;;5001160;28;20311;-90
2024/01/13 01:14:58;;;;;;;0.60;0.60;;;4.70;99.90;;;;;;5001407;28;20231;-90
2024/01/13 01:17:31;;;;;;;0.30;0.30;;;4.60;99.90;;;;;;5001220;28;20216;-90
2024/01/13 01:19:57;;;;;;;1.90;1.80;;;4.80;99.90;;;;;;5000898;28;20326;-91
2024/01/13 01:22:28;;;;;;;2.30;1.80;;;4.80;99.90;;;;;;5003124;28;20666;-93
2024/01/13 01:24:56;;;;;;;0.40;0.40;;;4.80;99.90;;;;;;4983233;28;20254;-90
2024/01/13 01:27:22;;;;;;;5.77;0.50;;;4.80;99.90;;;;;;5011242;28;20773;-90
2024/01/13 01:29:48;;;;;;;0.30;0.30;;;4.60;99.90;;;;;;5003554;28;20234;-88
2024/01/13 01:32:13;;;;;;;0.20;0.20;;;4.50;99.90;;;;;;5019391;28;20226;-91
2024/01/13 01:34:42;;;;;;;0.10;0.10;;;4.70;99.90;;;;;;5002876;28;20227;-93
2024/01/13 01:37:08;;;;;;;0.40;0.40;;;4.80;99.90;;;;;;5004024;28;20243;-91
2024/01/13 01:39:39;;;;;;;0.30;0.30;;;4.70;99.90;;;;;;5034914;28;20235;-91
2024/01/13 01:42:12;;;;;;;0.20;0.20;;;4.80;99.90;;;;;;5001862;28;20270;-90
2024/01/13 01:44:40;;;;;;;1.57;1.50;;;4.60;99.90;;;;;;5003242;28;20282;-91
2024/01/13 01:47:10;;;;;;;0.27;0.27;;;4.40;99.90;;;;;;5016561;28;20304;-90
2024/01/13 01:49:37;;;;;;;0.20;0.20;;;4.40;99.90;;;;;;5018845;28;20278;-90
2024/01/13 01:52:04;;;;;;;3.40;0.97;;;4.60;99.90;;;;;;5008889;28;20277;-92
2024/01/13 01:54:30;;;;;;;0.37;0.37;;;4.40;99.90;;;;;;5032939;28;20698;-91
2024/01/13 01:56:58;;;;;;;0.20;0.20;;;4.30;99.90;;;;;;5033472;28;20753;-91
2024/01/13 01:59:30;;;;;;;0.37;0.37;;;4.40;99.90;;;;;;5032777;28;20230;-90
2024/01/13 02:02:01;;;;;;;0.20;0.20;;;4.60;99.90;;;;;;5000901;28;20586;-91
2024/01/13 02:04:31;;;;;;;0.20;0.20;;;4.40;99.90;;;;;;4992829;28;20318;-90
2024/01/13 02:07:05;;;;;;;0.20;0.20;;;4.70;99.90;;;;;;5000453;28;20215;-91
2024/01/13 02:09:32;;;;;;;0.80;0.80;;;4.60;99.90;;;;;;5025641;28;20222;-91
2024/01/13 02:11:58;;;;;;;0.30;0.30;;;4.20;99.90;;;;;;5000658;28;20230;-90
2024/01/13 02:14:28;;;;;;;0.20;0.20;;;4.30;99.90;;;;;;4991889;28;20391;-93
2024/01/13 02:17:10;;;;;;;0.30;0.30;;;4.50;99.90;;;;;;5000415;28;20227;-91
2024/01/13 02:19:37;;;;;;;0.20;0.20;;;4.30;99.90;;;;;;4993054;28;20313;-90
2024/01/13 02:22:04;;;;;;;0.30;0.30;;;4.20;99.90;;;;;;5002403;28;20223;-90
2024/01/13 02:24:33;;;;;;;0.40;0.40;;;4.60;99.90;;;;;;4995067;28;20241;-91
2024/01/13 02:27:01;;;;;;;0.50;0.50;;;4.40;99.90;;;;;;5003596;28;20623;-89
2024/01/13 02:29:34;;;;;;;0.30;0.30;;;4.30;99.90;;;;;;5033416;28;20321;-90
2024/01/13 02:32:03;;;;;;;0.30;0.30;;;4.40;99.90;;;;;;5036342;28;20342;-89
2024/01/13 02:34:34;;;;;;;0.33;0.33;;;4.30;99.90;;;;;;5021992;28;20797;-90
2024/01/13 02:37:00;;;;;;;0.30;0.30;;;4.50;99.90;;;;;;5038687;28;20313;-92
2024/01/13 02:39:28;;;;;;;0.77;0.63;;;4.30;99.90;;;;;;5037353;28;20219;-91
2024/01/13 02:41:54;;;;;;;0.60;0.60;;;4.40;99.90;;;;;;5006925;28;20179;-92
2024/01/13 02:44:25;;;;;;;0.20;0.20;;;4.40;99.90;;;;;;5037513;28;20231;-91
2024/01/13 02:46:51;;;;;;;0.53;0.53;;;4.30;99.90;;;;;;4998286;28;20224;-93
2024/01/13 02:49:22;;;;;;;0.20;0.20;;;4.60;99.90;;;;;;5005817;28;20228;-91
2024/01/13 02:51:48;;;;;;;0.20;0.20;;;4.60;99.90;;;;;;5021676;28;20231;-91
2024/01/13 02:54:16;;;;;;;0.20;0.20;;;4.40;99.90;;;;;;5037121;28;20214;-89
2024/01/13 02:56:42;;;;;;;0.50;0.50;;;4.40;99.90;;;;;;5038643;28;20239;-91
2024/01/13 02:59:10;;;;;;;0.50;0.50;;;4.60;99.90;;;;;;4988640;28;20385;-91
2024/01/13 03:01:36;;;;;;;0.67;0.50;;;4.40;99.90;;;;;;5022184;28;20304;-91
2024/01/13 03:04:14;;;;;;;1.50;0.63;;;4.60;99.90;;;;;;5008460;28;20756;-93
2024/01/13 03:06:40;;;;;;;0.30;0.30;;;4.70;99.90;;;;;;5036764;28;20261;-91
2024/01/13 03:09:08;;;;;;;0.60;0.60;;;4.40;99.90;;;;;;4997760;28;20656;-91
2024/01/13 03:11:34;;;;;;;0.33;0.33;;;4.50;99.90;;;;;;5036450;28;20583;-91
2024/01/13 03:14:00;;;;;;;0.47;0.47;;;4.70;99.90;;;;;;5037375;28;20227;-91
2024/01/13 03:16:28;;;;;;;0.30;0.30;;;4.50;99.90;;;;;;5004962;28;20231;-93
2024/01/13 03:18:59;;;;;;;0.60;0.60;;;4.60;99.90;;;;;;5010843;28;20230;-91
2024/01/13 03:21:43;;;;;;;0.30;0.30;;;4.40;99.90;;;;;;5010961;28;20590;-90
2024/01/13 03:24:11;;;;;;;0.40;0.40;;;4.50;99.90;;;;;;5021392;28;20223;-90
2024/01/13 03:26:37;;;;;;;0.20;0.20;;;4.70;99.90;;;;;;5005295;28;20187;-91
2024/01/13 03:29:05;;;;;;;0.50;0.50;;;4.80;99.90;;;;;;5005271;28;20227;-92
2024/01/13 03:31:31;;;;;;;0.77;0.50;;;4.50;99.90;;;;;;4988756;28;20301;-93
2024/01/13 03:34:04;;;;;;;0.37;0.37;;;4.50;99.90;;;;;;5029885;28;20250;-91
2024/01/13 03:36:30;;;;;;;0.43;0.43;;;4.70;99.90;;;;;;4998751;28;20280;-92
2024/01/13 03:38:56;;;;;;;0.30;0.30;;;4.60;99.90;;;;;;5037998;28;20195;-92
2024/01/13 03:41:22;;;;;;;0.83;0.67;;;4.60;99.90;;;;;;5004989;28;20273;-90
2024/01/13 03:43:49;;;;;;;0.30;0.30;;;4.60;99.90;;;;;;5005617;28;20283;-90
2024/01/13 03:46:17;;;;;;;0.30;0.30;;;4.90;99.90;;;;;;5036702;28;20273;-91
2024/01/13 03:48:43;;;;;;;0.20;0.20;;;4.60;99.90;;;;;;5003663;28;20227;-93
2024/01/13 03:51:20;;;;;;;0.30;0.30;;;4.50;99.90;;;;;;5029972;28;21069;-93
2024/01/13 03:53:46;;;;;;;7.23;0.67;;;4.50;99.90;;;;;;5018762;28;20183;-91
2024/01/13 03:56:12;;;;;;;0.20;0.20;;;4.50;99.90;;;;;;5003754;28;20228;-91
2024/01/13 03:58:38;;;;;;;0.30;0.30;;;4.70;99.90;;;;;;5004376;28;20222;-91
2024/01/13 04:01:04;;;;;;;0.53;0.53;;;4.50;99.90;;;;;;5021252;28;20234;-90
2024/01/13 04:03:31;;;;;;;0.20;0.20;;;4.60;99.90;;;;;;5002514;28;20676;-92
2024/01/13 04:06:02;;;;;;;0.30;0.30;;;4.70;99.90;;;;;;5005434;28;20213;-89
2024/01/13 04:08:28;;;;;;;0.37;0.37;;;4.70;99.90;;;;;;5005241;28;20632;-91
2024/01/13 04:10:56;;;;;;;0.20;0.20;;;4.40;99.90;;;;;;5004454;28;20226;-92
2024/01/13 04:13:24;;;;;;;0.20;0.20;;;4.50;99.90;;;;;;4991298;28;20212;-90
2024/01/13 04:15:53;;;;;;;0.30;0.30;;;4.70;99.90;;;;;;4976033;28;20240;-92
2024/01/13 04:18:19;;;;;;;0.30;0.30;;;4.60;99.90;;;;;;4978749;28;20227;-90
2024/01/13 04:20:45;;;;;;;1.30;1.03;;;4.50;99.90;;;;;;5021771;28;20234;-91
2024/01/13 04:23:13;;;;;;;0.30;0.30;;;4.70;99.90;;;;;;5036568;28;20230;-91
2024/01/13 04:25:41;;;;;;;0.50;0.40;;;4.80;99.90;;;;;;5004535;28;20819;-91
2024/01/13 04:28:07;;;;;;;0.60;0.60;;;4.80;99.90;;;;;;5009997;28;20697;-91
2024/01/13 04:30:35;;;;;;;0.20;0.20;;;4.60;99.90;;;;;;4995585;28;20594;-92
2024/01/13 04:33:01;;;;;;;0.47;0.47;;;4.70;99.90;;;;;;4988182;28;20206;-92
2024/01/13 04:35:30;;;;;;;0.20;0.20;;;4.70;99.90;;;;;;5005053;28;20723;-92
2024/01/13 04:37:56;;;;;;;0.23;0.23;;;4.40;99.90;;;;;;5036051;28;20596;-91
2024/01/13 04:40:22;;;;;;;0.50;0.50;;;4.60;99.90;;;;;;4983888;28;20216;-89
2024/01/13 04:42:48;;;;;;;0.30;0.30;;;4.30;99.90;;;;;;4985886;28;20246;-91
2024/01/13 04:45:16;;;;;;;0.20;0.20;;;4.30;99.90;;;;;;5001625;28;20680;-90
2024/01/13 04:47:44;;;;;;;0.20;0.20;;;4.20;99.90;;;;;;5003779;28;20171;-90
2024/01/13 04:50:10;;;;;;;0.73;0.73;;;4.60;99.90;;;;;;5002963;28;20241;-89
2024/01/13 04:52:36;;;;;;;0.20;0.20;;;4.30;99.90;;;;;;5002537;28;20230;-91
2024/01/13 04:55:02;;;;;;;0.20;0.20;;;4.30;99.90;;;;;;5002248;28;20310;-89
2024/01/13 04:57:28;;;;;;;0.40;0.40;;;4.30;99.90;;;;;;5002761;28;20722;-91
2024/01/13 04:59:56;;;;;;;0.20;0.20;;;4.60;99.90;;;;;;5005141;28;20195;-90
2024/01/13 05:02:22;;;;;;;0.20;0.20;;;4.30;99.90;;;;;;5019666;28;20226;-90
2024/01/13 05:04:48;;;;;;;0.30;0.30;;;4.60;99.90;;;;;;4996094;28;20231;-91
2024/01/13 05:07:15;;;;;;;0.73;0.50;;;4.40;99.90;;;;;;4995153;28;20230;-91
2024/01/13 05:09:51;;;;;;;0.30;0.30;;;4.60;99.90;;;;;;5003042;28;20289;-90
2024/01/13 05:12:19;;;;;;;2.43;2.23;;;4.30;99.90;;;;;;5013114;28;20318;-91
2024/01/13 05:14:48;;;;;;;0.30;0.30;;;4.30;99.90;;;;;;5003656;28;20208;-92
2024/01/13 05:17:19;;;;;;;0.30;0.30;;;4.50;99.90;;;;;;5027199;28;20223;-91
2024/01/13 05:19:47;;;;;;;0.20;0.20;;;4.40;99.90;;;;;;5004576;28;20229;-90
2024/01/13 05:22:13;;;;;;;0.97;0.87;;;4.40;99.90;;;;;;5003117;28;20746;-92
2024/01/13 05:24:39;;;;;;;0.50;0.50;;;4.10;99.90;;;;;;4985679;28;20326;-90
2024/01/13 05:27:05;;;;;;;0.30;0.30;;;4.40;99.90;;;;;;5003411;28;20182;-90
2024/01/13 05:29:33;;;;;;;0.30;0.30;;;4.00;99.90;;;;;;5004002;28;20241;-93
2024/01/13 05:31:58;;;;;;;0.40;0.40;;;4.00;99.90;;;;;;5003977;28;20227;-89
2024/01/13 05:34:26;;;;;;;0.30;0.30;;;4.20;99.90;;;;;;5002821;28;20270;-91
2024/01/13 05:36:55;;;;;;;0.20;0.20;;;4.00;99.90;;;;;;5018343;28;20281;-89
2024/01/13 05:39:21;;;;;;;0.63;0.63;;;4.40;99.90;;;;;;5035012;28;20223;-90
2024/01/13 05:41:46;;;;;;;0.30;0.30;;;4.20;99.90;;;;;;5003912;28;20589;-89
2024/01/13 05:44:14;;;;;;;0.20;0.20;;;4.30;99.90;;;;;;5001677;28;20305;-89
2024/01/13 05:46:40;;;;;;;0.20;0.20;;;4.60;99.90;;;;;;5003157;28;20219;-91
2024/01/13 05:49:07;;;;;;;0.30;0.30;;;4.50;99.90;;;;;;5002558;28;20215;-89
2024/01/13 05:51:36;;;;;;;0.30;0.30;;;4.70;99.90;;;;;;5002600;28;20226;-89
2024/01/13 05:54:05;;;;;;;0.20;0.20;;;4.20;99.90;;;;;;5001580;28;20187;-90
2024/01/13 05:56:30;;;;;;;0.20;0.20;;;4.40;99.90;;;;;;5002917;28;20183;-91
2024/01/13 05:58:56;;;;;;;0.30;0.30;;;4.30;99.90;;;;;;4986324;28;20703;-89
2024/01/13 06:01:24;;;;;;;0.30;0.30;;;4.30;99.90;;;;;;5002098;28;20215;-91
2024/01/13 06:03:52;;;;;;;0.70;0.40;;;4.60;99.90;;;;;;5002800;28;20623;-90
2024/01/13 06:06:21;;;;;;;0.30;0.30;;;4.40;99.90;;;;;;4986199;28;20187;-92
2024/01/13 06:08:47;;;;;;;0.30;0.30;;;4.30;99.90;;;;;;4993968;28;20699;-90
2024/01/13 06:11:16;;;;;;;0.30;0.30;;;4.70;99.90;;;;;;5001667;28;20227;-90
2024/01/13 06:13:46;;;;;;;0.20;0.20;;;4.50;99.90;;;;;;5017082;28;20212;-90
2024/01/13 06:16:14;;;;;;;0.30;0.30;;;4.50;99.90;;;;;;5002031;28;20219;-90
2024/01/13 06:18:40;;;;;;;0.47;0.47;;;4.80;99.90;;;;;;5002210;28;20265;-91
2024/01/13 06:21:06;;;;;;;0.30;0.30;;;4.60;99.90;;;;;;5002622;28;20183;-90
2024/01/13 06:23:32;;;;;;;0.30;0.30;;;4.80;99.90;;;;;;4985643;28;20187;-90
2024/01/13 06:26:00;;;;;;;0.77;0.77;;;4.80;99.90;;;;;;5002584;28;20227;-91
2024/01/13 06:28:26;;;;;;;0.30;0.30;;;4.60;99.90;;;;;;5002440;28;20214;-90
2024/01/13 06:30:51;;;;;;;0.30;0.30;;;4.50;99.90;;;;;;5002061;28;20237;-89
2024/01/13 06:33:17;;;;;;;0.60;0.60;;;4.50;99.90;;;;;;5020417;28;20193;-90
2024/01/13 06:35:43;;;;;;;0.97;0.60;;;4.80;99.90;;;;;;5002460;28;20207;-91
2024/01/13 06:38:12;;;;;;;0.43;0.43;;;4.80;99.90;;;;;;5001312;28;20306;-90
2024/01/13 06:40:37;;;;;;;2.13;1.30;;;4.60;99.90;;;;;;4985529;28;20310;-90
2024/01/13 06:43:06;;;;;;;1.60;1.50;;;4.40;99.90;;;;;;5002509;28;20223;-90
2024/01/13 06:45:38;;;;;;;3.97;3.10;;;4.70;99.90;;;;;;5002654;28;20227;-90
2024/01/13 06:48:04;;;;;;;3.10;2.27;;;4.40;99.90;;;;;;5002455;28;20603;-91
2024/01/13 06:50:30;;;;;;;8.63;1.87;;;4.60;99.90;;;;;;5035069;28;20245;-89
2024/01/13 06:52:59;;;;;;;2.27;2.07;;;4.70;99.90;;;;;;5001724;28;20417;-90
2024/01/13 06:55:27;;;;;;;1.33;1.20;;;4.50;99.90;;;;;;5000416;28;20239;-94
2024/01/13 06:57:55;;;;;;;4.97;3.33;;;4.60;99.90;;;;;;5001489;28;20556;-89
2024/01/13 07:00:21;;;;;;;3.00;2.80;;;4.70;99.90;;;;;;5034425;28;20219;-91
2024/01/13 07:02:47;;;;;;;4.03;3.50;;;4.40;99.90;;;;;;5019481;28;20539;-91
2024/01/13 07:05:15;;;;;;;4.47;3.40;;;4.50;99.90;;;;;;5001471;28;20219;-91
2024/01/13 07:07:42;;;;;;;3.60;3.30;;;4.40;99.90;;;;;;5003118;28;20285;-91
2024/01/13 07:10:09;;;;;;;4.60;3.73;;;4.70;99.90;;;;;;5002063;28;20219;-90
2024/01/13 07:12:37;;;;;;;4.07;3.50;;;4.40;99.90;;;;;;5001174;28;20215;-90
2024/01/13 07:15:03;;;;;;;2.80;2.50;;;4.70;99.90;;;;;;4992810;28;20234;-92
2024/01/13 07:17:32;;;;;;;4.37;4.00;;;4.70;99.90;;;;;;5033208;28;20191;-91
2024/01/13 07:19:58;;;;;;;7.20;2.67;;;4.50;99.90;;;;;;4997794;28;20606;-90
2024/01/13 07:22:24;;;;;;;2.90;2.00;;;4.50;99.90;;;;;;5021228;28;20220;-90
2024/01/13 07:24:50;;;;;;;6.97;3.70;;;4.80;99.90;;;;;;5004061;28;20289;-90
2024/01/13 07:27:16;;;;;;;5.83;3.73;;;4.80;99.90;;;;;;5004121;28;20266;-87
2024/01/13 07:29:42;;;;;;;4.07;2.57;;;4.60;99.90;;;;;;4987312;28;20188;-87
2024/01/13 07:32:13;;;;;;;5.57;2.23;;;4.70;99.90;;;;;;5004746;28;20230;-89
2024/01/13 07:34:43;;;;;;;4.50;4.20;;;4.90;99.90;;;;;;5011738;28;20260;-89
2024/01/13 07:37:08;;;;;;;2.33;2.17;;;4.80;99.90;;;;;;4987329;28;20231;-91
2024/01/13 07:39:34;;;;;;;4.00;2.57;;;4.80;99.90;;;;;;4988229;28;20683;-91
2024/01/13 07:42:00;;;;;;;3.60;3.17;;;4.90;99.90;;;;;;5022096;28;20677;-89
2024/01/13 07:44:26;;;;;;;5.30;2.63;;;4.90;99.90;;;;;;5037893;28;20183;-90
2024/01/13 07:47:00;;;;;;;4.27;3.97;;;4.90;99.90;;;;;;5020546;28;20223;-92
2024/01/13 07:49:30;;;;;;;6.13;5.20;;;4.90;99.90;;;;;;5019278;28;20226;-91
2024/01/13 07:52:07;;;;;;;4.50;3.20;;;4.90;99.90;;;;;;5012688;28;20277;-93
2024/01/13 07:54:33;;;;;;;2.07;1.97;;;4.80;99.90;;;;;;5003795;28;20821;-92
2024/01/13 07:57:04;;;;;;;2.83;2.57;;;4.90;99.90;;;;;;5010220;28;20286;-90
2024/01/13 07:59:40;;;;;;;3.70;3.40;;;5.00;99.90;;;;;;5013998;28;20569;-94
2024/01/13 08:02:06;;;;;;;4.40;4.07;;;4.90;99.90;;;;;;4995938;28;20285;-92
2024/01/13 08:04:56;;;;;;;6.10;5.60;;;5.00;99.90;;;;;;5019153;28;20219;-94
2024/01/13 08:07:25;;;;;;;5.67;5.03;;;4.90;99.90;;;;;;4995154;28;20214;-90
2024/01/13 08:09:53;;;;;;;4.23;2.93;;;5.00;99.90;;;;;;5003826;28;20273;-91
2024/01/13 08:12:33;;;;;;;6.80;4.93;;;5.00;99.90;;;;;;5030211;28;20255;-92
2024/01/13 08:14:59;;;;;;;7.00;5.17;;;4.90;99.90;;;;;;5031295;28;20321;-90
2024/01/13 08:17:30;;;;;;;3.90;2.17;;;5.00;99.90;;;;;;4988403;28;20211;-91
2024/01/13 08:19:56;;;;;;;3.33;3.10;;;4.90;99.90;;;;;;5004264;28;20223;-92
2024/01/13 08:22:24;;;;;;;18.47;3.37;;;5.00;99.90;;;;;;5004064;28;20764;-92
2024/01/13 08:24:52;;;;;;;7.13;4.87;;;5.10;99.90;;;;;;5002974;28;20227;-90
2024/01/13 08:27:18;;;;;;;4.07;3.50;;;5.00;99.90;;;;;;4987561;28;22622;-91
2024/01/13 08:29:47;;;;;;;2.83;2.60;;;5.10;99.90;;;;;;4988164;28;20547;-91
2024/01/13 08:32:15;;;;;;;5.63;5.20;;;5.00;99.90;;;;;;5012190;28;20225;-93
2024/01/13 08:34:44;;;;;;;7.03;5.10;;;5.00;99.90;;;;;;4987792;28;20996;-91
2024/01/13 08:37:12;;;;;;;1.83;1.73;;;5.20;99.90;;;;;;5005087;28;20239;-92
2024/01/13 08:39:38;;;;;;;1.73;1.63;;;5.20;99.90;;;;;;5019263;28;20284;-86
2024/01/13 08:42:11;;;;;;;5.53;5.07;;;5.10;99.90;;;;;;4993825;28;20191;-89
2024/01/13 08:44:39;;;;;;;3.37;3.03;;;5.20;99.90;;;;;;5002947;28;20624;-90
2024/01/13 08:47:10;;;;;;;5.47;4.47;;;5.20;99.90;;;;;;5003146;28;20227;-91
2024/01/13 08:49:36;;;;;;;1.70;1.43;;;5.10;99.90;;;;;;5006654;28;20222;-90
2024/01/13 08:52:08;;;;;;;2.80;1.77;;;5.30;99.90;;;;;;5000185;28;20219;-90
2024/01/13 08:54:36;;;;;;;5.50;1.43;;;5.30;99.90;;;;;;5013709;28;20239;-93
2024/01/13 08:57:03;;;;;;;14.17;2.80;;;5.40;99.90;;;;;;5026267;28;20190;-90
2024/01/13 08:59:30;;;;;;;1.60;1.50;;;5.30;99.90;;;;;;5034635;28;20688;-91
2024/01/13 09:01:56;;;;;;;5.30;1.57;;;5.30;99.90;;;;;;5003077;28;20773;-91
2024/01/13 09:04:30;;;;;;;1.70;1.70;;;5.40;99.90;;;;;;5003419;28;20637;-88
2024/01/13 09:06:56;;;;;;;2.67;1.93;;;5.30;99.90;;;;;;5035803;28;20246;-90
2024/01/13 09:09:33;;;;;;;8.77;1.90;;;5.40;99.90;;;;;;5034327;28;20265;-92
2024/01/13 09:12:01;;;;;;;1.13;0.87;;;5.40;99.90;;;;;;4987397;28;20242;-91
2024/01/13 09:14:29;;;;;;;2.17;1.93;;;5.50;99.90;;;;;;5004622;28;20329;-92
2024/01/13 09:17:02;;;;;;;2.73;1.67;;;5.40;99.90;;;;;;5001722;28;20227;-93
2024/01/13 09:19:28;;;;;;;1.10;1.00;;;5.40;99.90;;;;;;5002805;28;20242;-91
2024/01/13 09:22:08;;;;;;;0.90;0.87;;;5.40;99.90;;;;;;5002848;28;20219;-91
2024/01/13 09:24:36;;;;;;;1.90;1.80;;;5.50;99.90;;;;;;4987776;28;20211;-91
2024/01/13 09:27:09;;;;;;;1.37;1.27;;;5.40;99.90;;;;;;5003305;28;20172;-92
2024/01/13 09:29:39;;;;;;;1.33;1.27;;;5.40;99.90;;;;;;5003472;28;20215;-91
2024/01/13 09:32:08;;;;;;;1.07;1.07;;;5.50;99.90;;;;;;4986933;28;20219;-90
2024/01/13 09:34:37;;;;;;;0.50;0.50;;;5.60;99.90;;;;;;5002423;28;20589;-92
2024/01/13 09:37:03;;;;;;;1.27;1.23;;;5.50;99.90;;;;;;4992365;28;20227;-88
2024/01/13 09:39:29;;;;;;;0.87;0.87;;;5.60;99.90;;;;;;4991915;28;20702;-89
2024/01/13 09:41:56;;;;;;;2.37;2.17;;;5.60;99.90;;;;;;5002429;28;20192;-87
2024/01/13 09:44:29;;;;;;;0.60;0.57;;;5.60;99.90;;;;;;4994837;28;20215;-90
2024/01/13 09:47:04;;;;;;;0.70;0.70;;;5.70;99.90;;;;;;4978871;28;20770;-91
2024/01/13 09:49:36;;;;;;;1.70;0.73;;;5.70;99.90;;;;;;4999215;28;20234;-89
2024/01/13 09:52:06;;;;;;;0.40;0.40;;;5.70;99.90;;;;;;5002150;28;20234;-89
2024/01/13 09:54:32;;;;;;;0.70;0.70;;;5.80;99.90;;;;;;5016524;28;20272;-89
2024/01/13 09:56:58;;;;;;;3.30;1.70;;;5.80;99.90;;;;;;5017852;28;20195;-89
2024/01/13 09:59:28;;;;;;;2.07;1.43;;;5.70;99.90;;;;;;4998795;28;20204;-88
2024/01/13 10:01:54;;;;;;;2.50;0.57;;;5.90;99.90;;;;;;4997898;28;20254;-88
2024/01/13 10:04:27;;;;;;;0.30;0.30;;;5.80;99.90;;;;;;5032917;28;20309;-89
2024/01/13 10:06:53;;;;;;;0.30;0.30;;;5.80;99.90;;;;;;5034933;28;20223;-88
2024/01/13 10:09:21;;;;;;;0.20;0.20;;;5.80;99.90;;;;;;4985003;28;20231;-90
2024/01/13 10:11:50;;;;;;;0.43;0.43;;;5.90;99.90;;;;;;5003120;28;20214;-89
2024/01/13 10:14:16;;;;;;;0.27;0.27;;;5.90;99.90;;;;;;5000962;28;20215;-88
2024/01/13 10:16:44;;;;;;;1.63;0.60;;;5.80;99.90;;;;;;5002022;28;20233;-89
2024/01/13 10:19:12;;;;;;;0.30;0.30;;;5.80;99.90;;;;;;4986197;28;20682;-89
2024/01/13 10:21:40;;;;;;;0.83;0.50;;;5.80;99.90;;;;;;5001732;28;20226;-90
2024/01/13 10:24:06;;;;;;;1.30;1.13;;;5.70;99.90;;;;;;5003032;28;20175;-89
2024/01/13 10:26:35;;;;;;;1.03;1.03;;;5.70;99.90;;;;;;5002639;28;20650;-89
2024/01/13 10:29:01;;;;;;;0.30;0.30;;;5.90;99.90;;;;;;5034160;28;20221;-88
2024/01/13 10:31:36;;;;;;;0.47;0.47;;;5.80;99.90;;;;;;5002957;28;20227;-90
2024/01/13 10:34:27;;;;;;;0.30;0.30;;;5.70;99.90;;;;;;5000850;28;20296;-92
2024/01/13 10:37:06;;;;;;;0.53;0.53;;;5.90;99.90;;;;;;4993672;28;20222;-90
2024/01/13 10:42:44;;;;;;;0.30;0.30;;;5.90;99.90;;;;;;4969191;28;20215;-91
2024/01/13 10:45:21;;;;;;;0.57;0.57;;;6.10;99.90;;;;;;5025992;28;20306;-93
2024/01/13 10:48:02;;;;;;;0.20;0.20;;;6.10;99.90;;;;;;5002641;28;20179;-94
2024/01/13 10:50:37;;;;;;;0.63;0.63;;;5.90;99.90;;;;;;5008299;28;21169;-94
2024/01/13 10:53:27;;;;;;;0.30;0.30;;;6.00;99.90;;;;;;5033109;28;20229;-93
2024/01/13 10:56:01;;;;;;;0.37;0.37;;;6.10;99.90;;;;;;5005063;28;20230;-94
2024/01/13 10:58:27;;;;;;;0.73;0.47;;;6.20;99.90;;;;;;4995364;28;20855;-93
2024/01/13 11:00:53;;;;;;;0.30;0.30;;;6.10;99.90;;;;;;5027997;28;20296;-93
2024/01/13 11:03:38;;;;;;;0.20;0.20;;;6.20;99.90;;;;;;5002775;28;20230;-92
2024/01/13 11:06:07;;;;;;;3.30;0.80;;;6.20;99.90;;;;;;5022040;28;20297;-93
2024/01/13 11:08:41;;;;;;;0.40;0.40;;;6.30;99.90;;;;;;5006776;28;20867;-91
2024/01/13 11:11:10;;;;;;;0.40;0.40;;;6.40;99.90;;;;;;5038757;28;20280;-89
2024/01/13 11:14:06;;;;;;;0.20;0.20;;;6.20;99.90;;;;;;5037718;28;20214;-92
2024/01/13 11:16:58;;;;;;;0.20;0.20;;;6.40;99.90;;;;;;4993440;28;21038;-91
2024/01/13 11:19:23;;;;;;;1.80;0.50;;;6.30;99.90;;;;;;5005462;28;20219;-90
2024/01/13 11:21:51;;;;;;;0.43;0.43;;;6.20;99.90;;;;;;5004500;28;20713;-90
2024/01/13 11:24:23;;;;;;;0.20;0.20;;;6.10;99.90;;;;;;5001252;28;20180;-91
2024/01/13 11:26:55;;;;;;;1.13;1.03;;;6.20;99.90;;;;;;5033819;28;20180;-91
2024/01/13 11:29:33;;;;;;;0.40;0.40;;;6.40;99.90;;;;;;5004277;28;20223;-91
2024/01/13 11:32:30;;;;;;;0.80;0.77;;;6.50;99.90;;;;;;5004676;28;20397;-91
2024/01/13 11:35:01;;;;;;;0.40;0.40;;;6.40;99.90;;;;;;5004017;28;20235;-92
2024/01/13 11:37:27;;;;;;;0.87;0.87;;;6.50;99.90;;;;;;5037276;28;20307;-93
2024/01/13 11:40:07;;;;;;;0.30;0.30;;;6.70;99.90;;;;;;5030692;28;20218;-92
2024/01/13 11:42:49;;;;;;;0.30;0.30;;;6.50;99.90;;;;;;5002754;28;20225;-93
2024/01/13 11:45:43;;;;;;;0.60;0.60;;;6.60;99.90;;;;;;5008936;28;20167;-93
2024/01/13 11:49:02;;;;;;;0.30;0.30;;;6.60;99.90;;;;;;5012441;28;20187;-93
2024/01/13 11:52:03;;;;;;;0.10;0.10;;;6.70;99.90;;;;;;4993961;28;21243;-92
2024/01/13 11:54:31;;;;;;;0.67;0.67;;;6.50;99.90;;;;;;4983237;28;20277;-94
2024/01/13 11:56:58;;;;;;;4.43;1.23;;;6.80;99.90;;;;;;5003885;28;20199;-91
2024/01/13 11:59:24;;;;;;;2.20;0.80;;;6.70;99.90;;;;;;5020842;28;20244;-90
2024/01/13 12:01:52;;;;;;;0.20;0.20;;;6.70;99.90;;;;;;5003389;28;20494;-90
2024/01/13 12:04:18;;;;;;;0.40;0.40;;;6.90;99.90;;;;;;5020063;28;20676;-93
2024/01/13 12:06:45;;;;;;;0.87;0.87;;;7.00;99.90;;;;;;5003995;28;20219;-92
2024/01/13 12:09:16;;;;;;;0.20;0.20;;;7.20;99.90;;;;;;4987097;28;20195;-92
2024/01/13 12:11:54;;;;;;;0.93;0.93;;;7.20;99.90;;;;;;5005301;28;20175;-93
2024/01/13 12:14:27;;;;;;;0.40;0.40;;;7.10;99.90;;;;;;5004354;28;20247;-90
2024/01/13 12:17:02;;;;;;;1.83;1.07;;;7.10;99.90;;;;;;5003498;28;20230;-89
2024/01/13 12:19:41;;;;;;;0.27;0.27;;;7.10;99.90;;;;;;5036698;28;20237;-92
2024/01/13 12:22:11;;;;;;;0.40;0.40;;;7.00;99.90;;;;;;5012002;28;20218;-91
2024/01/13 12:24:42;;;;;;;0.30;0.30;;;7.10;99.90;;;;;;5002072;28;20218;-95
2024/01/13 12:27:18;;;;;;;0.93;0.93;;;6.80;99.90;;;;;;5005228;28;20182;-93
2024/01/13 12:30:11;;;;;;;0.30;0.30;;;6.90;99.90;;;;;;5011316;28;20285;-95
2024/01/13 12:32:49;;;;;;;3.40;1.33;;;7.10;99.90;;;;;;5004279;28;20222;-92
2024/01/13 12:35:15;;;;;;;0.70;0.70;;;6.80;99.90;;;;;;5025485;28;20865;-86
2024/01/13 12:37:43;;;;;;;0.20;0.20;;;7.10;99.90;;;;;;5033549;28;20219;-92
2024/01/13 12:40:14;;;;;;;7.93;1.00;;;7.00;99.90;;;;;;4985409;28;20211;-93
2024/01/13 12:43:07;;;;;;;2.00;0.70;;;7.00;99.90;;;;;;4996604;28;20242;-94
2024/01/13 12:45:36;;;;;;;0.23;0.23;;;7.10;99.90;;;;;;4999147;28;20659;-93
2024/01/13 12:51:27;;;;;;;1.80;1.40;;;7.60;99.90;;;;;;5021273;28;20246;-94
2024/01/13 12:54:01;;;;;;;0.43;0.43;;;7.30;99.90;;;;;;5034792;28;20183;-95
2024/01/13 12:56:57;;;;;;;0.30;0.30;;;7.30;99.90;;;;;;5004648;28;20230;-93
2024/01/13 12:59:23;;;;;;;0.20;0.20;;;7.40;99.90;;;;;;5008609;28;20245;-94
2024/01/13 13:02:14;;;;;;;0.63;0.63;;;7.50;99.90;;;;;;5005959;28;20218;-93
2024/01/13 13:04:59;;;;;;;2.10;2.00;;;7.60;99.90;;;;;;4976882;28;20234;-95
2024/01/13 13:07:34;;;;;;;1.50;0.77;;;8.00;99.90;;;;;;5021389;28;20230;-93
2024/01/13 13:10:00;;;;;;;0.57;0.57;;;8.10;99.90;;;;;;5005421;28;20843;-94
2024/01/13 13:12:32;;;;;;;0.30;0.30;;;8.20;99.90;;;;;;5001806;28;20289;-90
2024/01/13 13:15:26;;;;;;;1.80;1.53;;;8.30;99.90;;;;;;4985164;28;20281;-92
2024/01/13 13:18:07;;;;;;;0.30;0.30;;;8.40;99.90;;;;;;5006536;28;20222;-96